sensor_id;sensor_type;location;lat;lon;timestamp;temperature;humidity
6270;DHT22;3168;51.684;6.954;2023-04-06T00:02:17;0.90;1.00
6270;DHT22;3168;51.684;6.954;2023-04-06T00:04:43;0.80;1.00
6270;DHT22;3168;51.684;6.954;2023-04-06T00:07:08;0.90;1.00
6270;DHT22;3168;51.684;6.954;2023-04-06T00:09:34;0.90;1.00
6270;DHT22;3168;51.684;6.954;2023-04-06T00:12:00;0.90;1.00
6270;DHT22;3168;51.684;6.954;2023-04-06T00:14:26;0.80;1.00
6270;DHT22;3168;51.684;6.954;2023-04-06T00:16:52;0.80;1.00
6270;DHT22;3168;51.684;6.954;2023-04-06T00:19:18;0.80;1.00
6270;DHT22;3168;51.684;6.954;2023-04-06T00:21:44;0.80;1.00
6270;DHT22;3168;51.684;6.954;2023-04-06T00:24:10;0.70;1.00
6270;DHT22;3168;51.684;6.954;2023-04-06T00:26:36;0.70;1.00
6270;DHT22;3168;51.684;6.954;2023-04-06T00:29:02;0.60;1.00
6270;DHT22;3168;51.684;6.954;2023-04-06T00:31:28;0.60;1.00
6270;DHT22;3168;51.684;6.954;2023-04-06T00:33:54;0.60;1.00
6270;DHT22;3168;51.684;6.954;2023-04-06T00:36:20;0.50;1.00
6270;DHT22;3168;51.684;6.954;2023-04-06T00:38:46;0.40;1.00
6270;DHT22;3168;51.684;6.954;2023-04-06T00:41:11;0.30;1.00
6270;DHT22;3168;51.684;6.954;2023-04-06T00:43:37;0.40;1.00
6270;DHT22;3168;51.684;6.954;2023-04-06T00:46:04;0.20;1.00
6270;DHT22;3168;51.684;6.954;2023-04-06T00:48:30;0.20;1.00
6270;DHT22;3168;51.684;6.954;2023-04-06T00:50:57;0.30;1.00
6270;DHT22;3168;51.684;6.954;2023-04-06T00:53:22;0.30;1.00
6270;DHT22;3168;51.684;6.954;2023-04-06T00:55:48;0.00;1.00
6270;DHT22;3168;51.684;6.954;2023-04-06T00:58:14;0.10;1.00
6270;DHT22;3168;51.684;6.954;2023-04-06T01:00:40;0.10;1.00
6270;DHT22;3168;51.684;6.954;2023-04-06T01:03:06;0.00;1.00
6270;DHT22;3168;51.684;6.954;2023-04-06T02:33:33;0.00;1.00
6270;DHT22;3168;51.684;6.954;2023-04-06T02:35:59;-0.10;1.00
6270;DHT22;3168;51.684;6.954;2023-04-06T02:38:25;-0.10;1.00
6270;DHT22;3168;51.684;6.954;2023-04-06T02:40:51;-0.10;1.00
6270;DHT22;3168;51.684;6.954;2023-04-06T02:43:17;-0.20;1.00
6270;DHT22;3168;51.684;6.954;2023-04-06T02:45:43;-0.30;1.00
6270;DHT22;3168;51.684;6.954;2023-04-06T02:48:08;-0.30;1.00
6270;DHT22;3168;51.684;6.954;2023-04-06T02:50:34;-0.30;1.00
6270;DHT22;3168;51.684;6.954;2023-04-06T02:53:00;-0.40;1.00
6270;DHT22;3168;51.684;6.954;2023-04-06T02:55:26;-0.30;1.00
6270;DHT22;3168;51.684;6.954;2023-04-06T02:57:52;-0.40;1.00
6270;DHT22;3168;51.684;6.954;2023-04-06T03:00:18;-0.40;1.00
6270;DHT22;3168;51.684;6.954;2023-04-06T03:02:44;-0.40;1.00
6270;DHT22;3168;51.684;6.954;2023-04-06T03:05:10;-0.40;1.00
6270;DHT22;3168;51.684;6.954;2023-04-06T03:07:36;-0.40;1.00
6270;DHT22;3168;51.684;6.954;2023-04-06T03:10:02;-0.40;1.00
6270;DHT22;3168;51.684;6.954;2023-04-06T03:12:28;-0.40;1.00
6270;DHT22;3168;51.684;6.954;2023-04-06T03:14:54;-0.50;1.00
6270;DHT22;3168;51.684;6.954;2023-04-06T03:17:20;-0.50;1.00
6270;DHT22;3168;51.684;6.954;2023-04-06T03:19:46;-0.50;1.00
6270;DHT22;3168;51.684;6.954;2023-04-06T03:22:11;-0.60;1.00
6270;DHT22;3168;51.684;6.954;2023-04-06T03:24:37;-0.60;1.00
6270;DHT22;3168;51.684;6.954;2023-04-06T03:27:03;-0.60;1.00
6270;DHT22;3168;51.684;6.954;2023-04-06T03:29:29;-0.50;1.00
6270;DHT22;3168;51.684;6.954;2023-04-06T03:31:55;-0.60;1.00
6270;DHT22;3168;51.684;6.954;2023-04-06T03:34:21;-0.60;1.00
6270;DHT22;3168;51.684;6.954;2023-04-06T03:36:46;-0.60;1.00
6270;DHT22;3168;51.684;6.954;2023-04-06T03:39:12;-0.60;1.00
6270;DHT22;3168;51.684;6.954;2023-04-06T03:41:38;-0.60;1.00
6270;DHT22;3168;51.684;6.954;2023-04-06T03:44:05;-0.70;1.00
6270;DHT22;3168;51.684;6.954;2023-04-06T03:46:30;-0.70;1.00
6270;DHT22;3168;51.684;6.954;2023-04-06T03:48:56;-0.70;1.00
6270;DHT22;3168;51.684;6.954;2023-04-06T03:51:22;-0.70;1.00
6270;DHT22;3168;51.684;6.954;2023-04-06T03:53:47;-0.70;1.00
6270;DHT22;3168;51.684;6.954;2023-04-06T03:56:13;-0.70;1.00
6270;DHT22;3168;51.684;6.954;2023-04-06T03:58:39;-0.70;1.00
6270;DHT22;3168;51.684;6.954;2023-04-06T04:01:05;-0.70;1.00
6270;DHT22;3168;51.684;6.954;2023-04-06T04:03:31;-0.80;1.00
6270;DHT22;3168;51.684;6.954;2023-04-06T04:05:57;-0.70;1.00
6270;DHT22;3168;51.684;6.954;2023-04-06T04:08:24;-0.70;1.00
6270;DHT22;3168;51.684;6.954;2023-04-06T04:10:49;-0.70;1.00
6270;DHT22;3168;51.684;6.954;2023-04-06T04:13:14;-0.70;1.00
6270;DHT22;3168;51.684;6.954;2023-04-06T04:15:40;-0.70;1.00
6270;DHT22;3168;51.684;6.954;2023-04-06T04:18:06;-0.70;1.00
6270;DHT22;3168;51.684;6.954;2023-04-06T04:20:32;-0.70;1.00
6270;DHT22;3168;51.684;6.954;2023-04-06T04:22:58;-0.80;1.00
6270;DHT22;3168;51.684;6.954;2023-04-06T04:25:24;-0.80;1.00
6270;DHT22;3168;51.684;6.954;2023-04-06T04:27:50;-0.80;1.00
6270;DHT22;3168;51.684;6.954;2023-04-06T04:30:16;-0.80;1.00
6270;DHT22;3168;51.684;6.954;2023-04-06T04:32:41;-0.80;1.00
6270;DHT22;3168;51.684;6.954;2023-04-06T04:35:08;-0.80;1.00
6270;DHT22;3168;51.684;6.954;2023-04-06T04:37:34;-0.80;1.00
6270;DHT22;3168;51.684;6.954;2023-04-06T04:40:00;-0.80;1.00
6270;DHT22;3168;51.684;6.954;2023-04-06T04:42:26;-0.90;1.00
6270;DHT22;3168;51.684;6.954;2023-04-06T04:44:52;-0.90;1.00
6270;DHT22;3168;51.684;6.954;2023-04-06T04:47:18;-0.90;1.00
6270;DHT22;3168;51.684;6.954;2023-04-06T04:49:44;-0.90;1.00
6270;DHT22;3168;51.684;6.954;2023-04-06T04:52:10;-0.90;1.00
6270;DHT22;3168;51.684;6.954;2023-04-06T04:54:36;-0.80;1.00
6270;DHT22;3168;51.684;6.954;2023-04-06T04:57:01;-0.80;1.00
6270;DHT22;3168;51.684;6.954;2023-04-06T04:59:27;-0.80;1.00
6270;DHT22;3168;51.684;6.954;2023-04-06T05:01:53;-0.80;1.00
6270;DHT22;3168;51.684;6.954;2023-04-06T05:04:19;-0.80;1.00
6270;DHT22;3168;51.684;6.954;2023-04-06T05:06:45;-0.80;1.00
6270;DHT22;3168;51.684;6.954;2023-04-06T05:09:11;-0.80;1.00
6270;DHT22;3168;51.684;6.954;2023-04-06T05:11:37;-0.70;1.00
6270;DHT22;3168;51.684;6.954;2023-04-06T05:14:03;-0.70;1.00
6270;DHT22;3168;51.684;6.954;2023-04-06T05:16:28;-0.70;1.00
6270;DHT22;3168;51.684;6.954;2023-04-06T05:18:54;-0.70;1.00
6270;DHT22;3168;51.684;6.954;2023-04-06T05:21:20;-0.70;1.00
6270;DHT22;3168;51.684;6.954;2023-04-06T05:23:46;-0.70;1.00
6270;DHT22;3168;51.684;6.954;2023-04-06T05:26:12;-0.70;1.00
6270;DHT22;3168;51.684;6.954;2023-04-06T05:28:38;-0.70;1.00
6270;DHT22;3168;51.684;6.954;2023-04-06T05:31:04;-0.60;1.00
6270;DHT22;3168;51.684;6.954;2023-04-06T05:33:30;-0.50;1.00
6270;DHT22;3168;51.684;6.954;2023-04-06T05:35:56;-0.50;1.00
6270;DHT22;3168;51.684;6.954;2023-04-06T05:38:22;-0.40;1.00
6270;DHT22;3168;51.684;6.954;2023-04-06T05:40:48;-0.40;1.00
6270;DHT22;3168;51.684;6.954;2023-04-06T05:43:14;-0.40;1.00
6270;DHT22;3168;51.684;6.954;2023-04-06T05:45:40;-0.40;1.00
6270;DHT22;3168;51.684;6.954;2023-04-06T05:48:06;-0.30;1.00
6270;DHT22;3168;51.684;6.954;2023-04-06T05:50:32;-0.30;1.00
6270;DHT22;3168;51.684;6.954;2023-04-06T05:52:58;-0.30;1.00
6270;DHT22;3168;51.684;6.954;2023-04-06T05:55:24;-0.20;1.00
6270;DHT22;3168;51.684;6.954;2023-04-06T05:57:50;-0.20;1.00
6270;DHT22;3168;51.684;6.954;2023-04-06T06:00:16;-0.10;1.00
6270;DHT22;3168;51.684;6.954;2023-04-06T06:02:42;-0.10;1.00
6270;DHT22;3168;51.684;6.954;2023-04-06T06:05:08;0.00;1.00
6270;DHT22;3168;51.684;6.954;2023-04-06T06:07:34;0.10;1.00
6270;DHT22;3168;51.684;6.954;2023-04-06T06:10:00;0.20;1.00
6270;DHT22;3168;51.684;6.954;2023-04-06T06:12:25;0.20;1.00
6270;DHT22;3168;51.684;6.954;2023-04-06T06:14:54;0.30;1.00
6270;DHT22;3168;51.684;6.954;2023-04-06T06:17:20;0.30;1.00
6270;DHT22;3168;51.684;6.954;2023-04-06T06:19:47;0.40;1.00
6270;DHT22;3168;51.684;6.954;2023-04-06T06:22:17;0.50;1.00
6270;DHT22;3168;51.684;6.954;2023-04-06T06:24:44;0.60;1.00
6270;DHT22;3168;51.684;6.954;2023-04-06T06:27:10;0.70;1.00
6270;DHT22;3168;51.684;6.954;2023-04-06T06:29:39;0.90;1.00
6270;DHT22;3168;51.684;6.954;2023-04-06T06:32:05;0.80;1.00
6270;DHT22;3168;51.684;6.954;2023-04-06T06:34:31;0.90;1.00
6270;DHT22;3168;51.684;6.954;2023-04-06T06:36:57;1.00;1.00
6270;DHT22;3168;51.684;6.954;2023-04-06T06:39:23;1.20;1.00
6270;DHT22;3168;51.684;6.954;2023-04-06T06:41:49;1.30;1.00
6270;DHT22;3168;51.684;6.954;2023-04-06T06:44:15;1.40;1.00
6270;DHT22;3168;51.684;6.954;2023-04-06T06:46:40;1.50;1.00
6270;DHT22;3168;51.684;6.954;2023-04-06T06:49:06;1.60;1.00
6270;DHT22;3168;51.684;6.954;2023-04-06T06:51:33;1.70;1.00
6270;DHT22;3168;51.684;6.954;2023-04-06T06:54:00;1.70;1.00
6270;DHT22;3168;51.684;6.954;2023-04-06T06:56:27;2.00;1.00
6270;DHT22;3168;51.684;6.954;2023-04-06T06:58:54;2.20;1.00
6270;DHT22;3168;51.684;6.954;2023-04-06T07:01:23;2.30;1.00
6270;DHT22;3168;51.684;6.954;2023-04-06T07:03:51;2.50;1.00
6270;DHT22;3168;51.684;6.954;2023-04-06T07:06:19;2.60;1.00
6270;DHT22;3168;51.684;6.954;2023-04-06T07:08:46;2.60;1.00
6270;DHT22;3168;51.684;6.954;2023-04-06T07:11:14;2.80;1.00
6270;DHT22;3168;51.684;6.954;2023-04-06T07:13:42;2.80;1.00
6270;DHT22;3168;51.684;6.954;2023-04-06T07:16:11;3.20;1.00
6270;DHT22;3168;51.684;6.954;2023-04-06T07:18:38;3.40;1.00
6270;DHT22;3168;51.684;6.954;2023-04-06T07:21:04;3.50;1.00
6270;DHT22;3168;51.684;6.954;2023-04-06T07:23:31;3.70;1.00
6270;DHT22;3168;51.684;6.954;2023-04-06T07:25:57;3.80;1.00
6270;DHT22;3168;51.684;6.954;2023-04-06T07:28:23;4.10;1.00
6270;DHT22;3168;51.684;6.954;2023-04-06T07:30:52;4.20;1.00
6270;DHT22;3168;51.684;6.954;2023-04-06T07:33:22;4.30;1.00
6270;DHT22;3168;51.684;6.954;2023-04-06T07:35:50;4.30;1.00
6270;DHT22;3168;51.684;6.954;2023-04-06T07:38:16;4.50;1.00
6270;DHT22;3168;51.684;6.954;2023-04-06T07:40:42;4.70;1.00
6270;DHT22;3168;51.684;6.954;2023-04-06T07:43:08;5.00;1.00
6270;DHT22;3168;51.684;6.954;2023-04-06T07:45:34;5.30;1.00
6270;DHT22;3168;51.684;6.954;2023-04-06T07:48:00;5.60;1.00
6270;DHT22;3168;51.684;6.954;2023-04-06T07:50:26;5.80;1.00
6270;DHT22;3168;51.684;6.954;2023-04-06T07:52:52;6.10;1.00
6270;DHT22;3168;51.684;6.954;2023-04-06T07:55:17;6.30;1.00
6270;DHT22;3168;51.684;6.954;2023-04-06T07:57:43;6.50;1.00
6270;DHT22;3168;51.684;6.954;2023-04-06T08:00:10;6.80;1.00
6270;DHT22;3168;51.684;6.954;2023-04-06T08:02:36;7.10;1.00
6270;DHT22;3168;51.684;6.954;2023-04-06T08:05:02;7.50;1.00
6270;DHT22;3168;51.684;6.954;2023-04-06T08:07:30;7.60;1.00
6270;DHT22;3168;51.684;6.954;2023-04-06T08:09:56;8.10;1.00
6270;DHT22;3168;51.684;6.954;2023-04-06T08:12:22;8.40;1.00
6270;DHT22;3168;51.684;6.954;2023-04-06T08:14:48;8.70;1.00
6270;DHT22;3168;51.684;6.954;2023-04-06T08:17:14;8.60;1.00
6270;DHT22;3168;51.684;6.954;2023-04-06T08:19:41;8.80;1.00
6270;DHT22;3168;51.684;6.954;2023-04-06T08:22:05;8.70;1.00
6270;DHT22;3168;51.684;6.954;2023-04-06T08:24:31;9.10;1.00
6270;DHT22;3168;51.684;6.954;2023-04-06T08:26:57;9.30;1.00
6270;DHT22;3168;51.684;6.954;2023-04-06T08:29:23;9.30;1.00
6270;DHT22;3168;51.684;6.954;2023-04-06T08:31:49;9.70;1.00
6270;DHT22;3168;51.684;6.954;2023-04-06T08:34:15;9.80;1.00
6270;DHT22;3168;51.684;6.954;2023-04-06T08:36:41;9.70;1.00
6270;DHT22;3168;51.684;6.954;2023-04-06T08:39:07;9.80;1.00
6270;DHT22;3168;51.684;6.954;2023-04-06T08:41:33;9.80;1.00
6270;DHT22;3168;51.684;6.954;2023-04-06T08:43:59;10.20;1.00
6270;DHT22;3168;51.684;6.954;2023-04-06T08:46:25;10.70;1.00
6270;DHT22;3168;51.684;6.954;2023-04-06T08:48:52;10.70;1.00
6270;DHT22;3168;51.684;6.954;2023-04-06T08:51:18;10.60;1.00
6270;DHT22;3168;51.684;6.954;2023-04-06T08:53:43;10.70;1.00
6270;DHT22;3168;51.684;6.954;2023-04-06T08:56:09;10.40;1.00
6270;DHT22;3168;51.684;6.954;2023-04-06T08:58:36;10.40;1.00
6270;DHT22;3168;51.684;6.954;2023-04-06T09:01:02;10.20;1.00
6270;DHT22;3168;51.684;6.954;2023-04-06T09:03:28;10.00;1.00
6270;DHT22;3168;51.684;6.954;2023-04-06T09:05:53;10.00;1.00
6270;DHT22;3168;51.684;6.954;2023-04-06T09:08:20;10.20;1.00
6270;DHT22;3168;51.684;6.954;2023-04-06T09:10:45;10.10;1.00
6270;DHT22;3168;51.684;6.954;2023-04-06T09:13:11;10.20;1.00
6270;DHT22;3168;51.684;6.954;2023-04-06T09:15:37;10.30;1.00
6270;DHT22;3168;51.684;6.954;2023-04-06T09:18:03;10.40;1.00
6270;DHT22;3168;51.684;6.954;2023-04-06T09:20:29;10.50;1.00
6270;DHT22;3168;51.684;6.954;2023-04-06T09:22:55;10.30;1.00
6270;DHT22;3168;51.684;6.954;2023-04-06T09:25:21;10.20;1.00
6270;DHT22;3168;51.684;6.954;2023-04-06T09:27:47;10.60;1.00
6270;DHT22;3168;51.684;6.954;2023-04-06T09:30:14;10.90;1.00
6270;DHT22;3168;51.684;6.954;2023-04-06T09:32:48;10.90;1.00
6270;DHT22;3168;51.684;6.954;2023-04-06T09:35:13;11.00;1.00
6270;DHT22;3168;51.684;6.954;2023-04-06T09:37:39;11.20;1.00
6270;DHT22;3168;51.684;6.954;2023-04-06T09:40:06;11.50;1.00
6270;DHT22;3168;51.684;6.954;2023-04-06T09:42:32;11.70;1.00
6270;DHT22;3168;51.684;6.954;2023-04-06T09:44:58;11.70;1.00
6270;DHT22;3168;51.684;6.954;2023-04-06T09:47:24;11.80;1.00
6270;DHT22;3168;51.684;6.954;2023-04-06T09:49:50;12.00;1.00
6270;DHT22;3168;51.684;6.954;2023-04-06T09:52:16;11.80;1.00
6270;DHT22;3168;51.684;6.954;2023-04-06T09:54:42;11.70;1.00
6270;DHT22;3168;51.684;6.954;2023-04-06T09:57:45;11.90;1.00
6270;DHT22;3168;51.684;6.954;2023-04-06T10:00:08;12.10;1.00
6270;DHT22;3168;51.684;6.954;2023-04-06T10:02:50;12.30;1.00
6270;DHT22;3168;51.684;6.954;2023-04-06T10:05:33;12.50;1.00
6270;DHT22;3168;51.684;6.954;2023-04-06T10:07:59;12.30;1.00
6270;DHT22;3168;51.684;6.954;2023-04-06T10:10:25;12.10;1.00
6270;DHT22;3168;51.684;6.954;2023-04-06T10:12:50;12.00;1.00
6270;DHT22;3168;51.684;6.954;2023-04-06T10:15:16;11.80;1.00
6270;DHT22;3168;51.684;6.954;2023-04-06T10:17:43;12.10;1.00
6270;DHT22;3168;51.684;6.954;2023-04-06T10:20:11;12.30;1.00
6270;DHT22;3168;51.684;6.954;2023-04-06T10:22:48;12.10;1.00
6270;DHT22;3168;51.684;6.954;2023-04-06T10:25:11;12.40;1.00
6270;DHT22;3168;51.684;6.954;2023-04-06T10:27:37;12.60;1.00
6270;DHT22;3168;51.684;6.954;2023-04-06T10:30:04;13.00;1.00
6270;DHT22;3168;51.684;6.954;2023-04-06T10:32:36;12.80;1.00
6270;DHT22;3168;51.684;6.954;2023-04-06T10:35:06;12.80;1.00
6270;DHT22;3168;51.684;6.954;2023-04-06T10:37:45;12.60;1.00
6270;DHT22;3168;51.684;6.954;2023-04-06T10:39:57;12.40;1.00
6270;DHT22;3168;51.684;6.954;2023-04-06T10:42:24;12.40;1.00
6270;DHT22;3168;51.684;6.954;2023-04-06T10:44:50;12.70;1.00
6270;DHT22;3168;51.684;6.954;2023-04-06T10:47:16;12.90;1.00
6270;DHT22;3168;51.684;6.954;2023-04-06T10:49:41;12.90;1.00
6270;DHT22;3168;51.684;6.954;2023-04-06T10:52:07;12.90;1.00
6270;DHT22;3168;51.684;6.954;2023-04-06T10:54:33;12.90;1.00
6270;DHT22;3168;51.684;6.954;2023-04-06T10:57:00;13.00;1.00
6270;DHT22;3168;51.684;6.954;2023-04-06T10:59:28;13.00;1.00
6270;DHT22;3168;51.684;6.954;2023-04-06T11:01:52;13.40;1.00
6270;DHT22;3168;51.684;6.954;2023-04-06T11:04:19;13.20;1.00
6270;DHT22;3168;51.684;6.954;2023-04-06T11:06:46;13.30;1.00
6270;DHT22;3168;51.684;6.954;2023-04-06T11:09:12;13.30;1.00
6270;DHT22;3168;51.684;6.954;2023-04-06T11:11:38;13.40;1.00
6270;DHT22;3168;51.684;6.954;2023-04-06T11:14:03;13.20;1.00
6270;DHT22;3168;51.684;6.954;2023-04-06T11:16:31;13.60;1.00
6270;DHT22;3168;51.684;6.954;2023-04-06T11:18:58;13.50;1.00
6270;DHT22;3168;51.684;6.954;2023-04-06T11:21:35;13.70;1.00
6270;DHT22;3168;51.684;6.954;2023-04-06T11:24:06;13.60;1.00
6270;DHT22;3168;51.684;6.954;2023-04-06T11:26:36;13.40;1.00
6270;DHT22;3168;51.684;6.954;2023-04-06T11:28:57;13.20;1.00
6270;DHT22;3168;51.684;6.954;2023-04-06T11:31:25;13.20;1.00
6270;DHT22;3168;51.684;6.954;2023-04-06T11:33:58;13.30;1.00
6270;DHT22;3168;51.684;6.954;2023-04-06T11:36:26;13.40;1.00
6270;DHT22;3168;51.684;6.954;2023-04-06T11:38:50;13.50;1.00
6270;DHT22;3168;51.684;6.954;2023-04-06T11:41:16;13.60;1.00
6270;DHT22;3168;51.684;6.954;2023-04-06T11:43:47;13.70;1.00
6270;DHT22;3168;51.684;6.954;2023-04-06T11:46:12;13.90;1.00
6270;DHT22;3168;51.684;6.954;2023-04-06T11:48:43;13.60;1.00
6270;DHT22;3168;51.684;6.954;2023-04-06T11:51:03;13.60;1.00
6270;DHT22;3168;51.684;6.954;2023-04-06T11:53:29;13.60;1.00
6270;DHT22;3168;51.684;6.954;2023-04-06T11:55:55;13.60;1.00
6270;DHT22;3168;51.684;6.954;2023-04-06T11:58:21;13.60;1.00
6270;DHT22;3168;51.684;6.954;2023-04-06T12:00:47;13.60;1.00
6270;DHT22;3168;51.684;6.954;2023-04-06T12:03:13;13.70;1.00
6270;DHT22;3168;51.684;6.954;2023-04-06T12:05:39;13.80;1.00
6270;DHT22;3168;51.684;6.954;2023-04-06T12:08:05;13.80;1.00
6270;DHT22;3168;51.684;6.954;2023-04-06T12:10:30;13.90;1.00
6270;DHT22;3168;51.684;6.954;2023-04-06T12:12:56;13.90;1.00
6270;DHT22;3168;51.684;6.954;2023-04-06T12:15:22;13.80;1.00
6270;DHT22;3168;51.684;6.954;2023-04-06T12:17:48;13.80;1.00
6270;DHT22;3168;51.684;6.954;2023-04-06T12:20:15;14.30;1.00
6270;DHT22;3168;51.684;6.954;2023-04-06T12:22:41;14.20;1.00
6270;DHT22;3168;51.684;6.954;2023-04-06T12:25:07;14.00;1.00
6270;DHT22;3168;51.684;6.954;2023-04-06T12:27:34;13.50;1.00
6270;DHT22;3168;51.684;6.954;2023-04-06T12:30:00;13.50;1.00
6270;DHT22;3168;51.684;6.954;2023-04-06T12:32:25;13.80;1.00
6270;DHT22;3168;51.684;6.954;2023-04-06T12:34:52;13.60;1.00
6270;DHT22;3168;51.684;6.954;2023-04-06T12:37:17;13.40;1.00
6270;DHT22;3168;51.684;6.954;2023-04-06T12:39:43;13.40;1.00
6270;DHT22;3168;51.684;6.954;2023-04-06T12:42:10;13.60;1.00
6270;DHT22;3168;51.684;6.954;2023-04-06T12:44:36;13.60;1.00
6270;DHT22;3168;51.684;6.954;2023-04-06T12:47:02;13.60;1.00
6270;DHT22;3168;51.684;6.954;2023-04-06T12:49:28;13.60;1.00
6270;DHT22;3168;51.684;6.954;2023-04-06T12:51:53;13.50;1.00
6270;DHT22;3168;51.684;6.954;2023-04-06T12:54:19;13.30;1.00
6270;DHT22;3168;51.684;6.954;2023-04-06T12:56:46;13.40;1.00
6270;DHT22;3168;51.684;6.954;2023-04-06T12:59:12;13.40;1.00
6270;DHT22;3168;51.684;6.954;2023-04-06T13:01:38;13.40;1.00
6270;DHT22;3168;51.684;6.954;2023-04-06T13:04:04;13.20;1.00
6270;DHT22;3168;51.684;6.954;2023-04-06T13:06:30;13.10;1.00
6270;DHT22;3168;51.684;6.954;2023-04-06T13:08:56;13.10;1.00
6270;DHT22;3168;51.684;6.954;2023-04-06T13:11:22;13.10;1.00
6270;DHT22;3168;51.684;6.954;2023-04-06T13:13:48;13.10;1.00
6270;DHT22;3168;51.684;6.954;2023-04-06T13:16:14;13.20;1.00
6270;DHT22;3168;51.684;6.954;2023-04-06T13:18:40;13.00;1.00
6270;DHT22;3168;51.684;6.954;2023-04-06T13:21:06;12.90;1.00
6270;DHT22;3168;51.684;6.954;2023-04-06T13:23:32;13.00;1.00
6270;DHT22;3168;51.684;6.954;2023-04-06T13:26:02;13.00;1.00
6270;DHT22;3168;51.684;6.954;2023-04-06T13:28:27;13.00;1.00
6270;DHT22;3168;51.684;6.954;2023-04-06T13:30:53;13.10;1.00
6270;DHT22;3168;51.684;6.954;2023-04-06T13:33:19;12.90;1.00
6270;DHT22;3168;51.684;6.954;2023-04-06T13:35:45;13.10;1.00
6270;DHT22;3168;51.684;6.954;2023-04-06T13:38:11;13.10;1.00
6270;DHT22;3168;51.684;6.954;2023-04-06T13:40:39;12.90;1.00
6270;DHT22;3168;51.684;6.954;2023-04-06T13:43:05;12.70;1.00
6270;DHT22;3168;51.684;6.954;2023-04-06T13:45:31;12.60;1.00
6270;DHT22;3168;51.684;6.954;2023-04-06T13:47:57;12.60;1.00
6270;DHT22;3168;51.684;6.954;2023-04-06T13:50:25;12.50;1.00
6270;DHT22;3168;51.684;6.954;2023-04-06T13:52:48;12.30;1.00
6270;DHT22;3168;51.684;6.954;2023-04-06T13:55:14;12.30;1.00
6270;DHT22;3168;51.684;6.954;2023-04-06T13:57:40;12.30;1.00
6270;DHT22;3168;51.684;6.954;2023-04-06T14:00:07;12.30;1.00
6270;DHT22;3168;51.684;6.954;2023-04-06T14:02:33;12.30;1.00
6270;DHT22;3168;51.684;6.954;2023-04-06T14:04:59;12.30;1.00
6270;DHT22;3168;51.684;6.954;2023-04-06T14:07:24;12.10;1.00
6270;DHT22;3168;51.684;6.954;2023-04-06T14:09:50;11.90;1.00
6270;DHT22;3168;51.684;6.954;2023-04-06T14:12:16;11.70;1.00
6270;DHT22;3168;51.684;6.954;2023-04-06T14:14:42;11.70;1.00
6270;DHT22;3168;51.684;6.954;2023-04-06T14:17:08;11.80;1.00
6270;DHT22;3168;51.684;6.954;2023-04-06T14:19:34;11.90;1.00
6270;DHT22;3168;51.684;6.954;2023-04-06T14:22:00;11.60;1.00
6270;DHT22;3168;51.684;6.954;2023-04-06T14:24:26;11.60;1.00
6270;DHT22;3168;51.684;6.954;2023-04-06T14:26:52;11.60;1.00
6270;DHT22;3168;51.684;6.954;2023-04-06T14:29:18;11.50;1.00
6270;DHT22;3168;51.684;6.954;2023-04-06T14:31:45;11.30;1.00
6270;DHT22;3168;51.684;6.954;2023-04-06T14:34:10;11.30;1.00
6270;DHT22;3168;51.684;6.954;2023-04-06T14:36:36;11.30;1.00
6270;DHT22;3168;51.684;6.954;2023-04-06T14:39:03;11.30;1.00
6270;DHT22;3168;51.684;6.954;2023-04-06T14:41:29;11.30;1.00
6270;DHT22;3168;51.684;6.954;2023-04-06T14:43:54;11.30;1.00
6270;DHT22;3168;51.684;6.954;2023-04-06T14:46:20;11.40;1.00
6270;DHT22;3168;51.684;6.954;2023-04-06T14:48:46;11.40;1.00
6270;DHT22;3168;51.684;6.954;2023-04-06T14:51:12;11.50;1.00
6270;DHT22;3168;51.684;6.954;2023-04-06T14:53:38;11.40;1.00
6270;DHT22;3168;51.684;6.954;2023-04-06T14:56:04;11.30;1.00
6270;DHT22;3168;51.684;6.954;2023-04-06T14:58:30;11.30;1.00
6270;DHT22;3168;51.684;6.954;2023-04-06T15:00:57;11.20;1.00
6270;DHT22;3168;51.684;6.954;2023-04-06T15:03:22;11.20;1.00
6270;DHT22;3168;51.684;6.954;2023-04-06T15:05:48;11.10;1.00
6270;DHT22;3168;51.684;6.954;2023-04-06T15:08:14;11.00;1.00
6270;DHT22;3168;51.684;6.954;2023-04-06T15:10:40;11.00;1.00
6270;DHT22;3168;51.684;6.954;2023-04-06T15:13:05;10.90;1.00
6270;DHT22;3168;51.684;6.954;2023-04-06T15:15:31;11.00;1.00
6270;DHT22;3168;51.684;6.954;2023-04-06T15:17:57;10.80;1.00
6270;DHT22;3168;51.684;6.954;2023-04-06T15:20:23;10.80;1.00
6270;DHT22;3168;51.684;6.954;2023-04-06T15:22:49;10.70;1.00
6270;DHT22;3168;51.684;6.954;2023-04-06T15:25:15;10.80;1.00
6270;DHT22;3168;51.684;6.954;2023-04-06T15:27:41;10.70;1.00
6270;DHT22;3168;51.684;6.954;2023-04-06T15:30:07;10.60;1.00
6270;DHT22;3168;51.684;6.954;2023-04-06T15:32:33;10.70;1.00
6270;DHT22;3168;51.684;6.954;2023-04-06T15:34:59;10.70;1.00
6270;DHT22;3168;51.684;6.954;2023-04-06T15:37:25;10.60;1.00
6270;DHT22;3168;51.684;6.954;2023-04-06T15:39:50;10.60;1.00
6270;DHT22;3168;51.684;6.954;2023-04-06T15:42:16;10.50;1.00
6270;DHT22;3168;51.684;6.954;2023-04-06T15:44:42;10.50;1.00
6270;DHT22;3168;51.684;6.954;2023-04-06T15:47:08;10.50;1.00
6270;DHT22;3168;51.684;6.954;2023-04-06T15:49:33;10.50;1.00
6270;DHT22;3168;51.684;6.954;2023-04-06T15:51:59;10.50;1.00
6270;DHT22;3168;51.684;6.954;2023-04-06T15:54:25;10.50;1.00
6270;DHT22;3168;51.684;6.954;2023-04-06T15:56:51;10.50;1.00
6270;DHT22;3168;51.684;6.954;2023-04-06T15:59:17;10.40;1.00
6270;DHT22;3168;51.684;6.954;2023-04-06T16:01:44;10.40;1.00
6270;DHT22;3168;51.684;6.954;2023-04-06T16:04:09;10.30;1.00
6270;DHT22;3168;51.684;6.954;2023-04-06T16:06:34;10.30;1.00
6270;DHT22;3168;51.684;6.954;2023-04-06T16:09:00;10.20;1.00
6270;DHT22;3168;51.684;6.954;2023-04-06T16:11:26;10.10;1.00
6270;DHT22;3168;51.684;6.954;2023-04-06T16:13:52;10.00;1.00
6270;DHT22;3168;51.684;6.954;2023-04-06T16:16:18;9.90;1.00
6270;DHT22;3168;51.684;6.954;2023-04-06T16:18:44;9.70;1.00
6270;DHT22;3168;51.684;6.954;2023-04-06T16:21:15;9.60;1.00
6270;DHT22;3168;51.684;6.954;2023-04-06T16:23:40;9.50;1.00
6270;DHT22;3168;51.684;6.954;2023-04-06T16:26:11;9.50;1.00
6270;DHT22;3168;51.684;6.954;2023-04-06T16:28:36;9.40;1.00
6270;DHT22;3168;51.684;6.954;2023-04-06T16:31:03;9.30;1.00
6270;DHT22;3168;51.684;6.954;2023-04-06T16:33:28;9.20;1.00
6270;DHT22;3168;51.684;6.954;2023-04-06T16:35:54;9.20;1.00
6270;DHT22;3168;51.684;6.954;2023-04-06T16:38:20;9.10;1.00
6270;DHT22;3168;51.684;6.954;2023-04-06T16:40:46;9.10;1.00
6270;DHT22;3168;51.684;6.954;2023-04-06T16:43:12;8.90;1.00
6270;DHT22;3168;51.684;6.954;2023-04-06T16:45:38;8.80;1.00
6270;DHT22;3168;51.684;6.954;2023-04-06T16:48:03;8.70;1.00
6270;DHT22;3168;51.684;6.954;2023-04-06T16:50:29;8.70;1.00
6270;DHT22;3168;51.684;6.954;2023-04-06T16:52:55;8.70;1.00
6270;DHT22;3168;51.684;6.954;2023-04-06T16:55:21;8.60;1.00
6270;DHT22;3168;51.684;6.954;2023-04-06T16:57:47;8.60;1.00
6270;DHT22;3168;51.684;6.954;2023-04-06T17:00:14;8.50;1.00
6270;DHT22;3168;51.684;6.954;2023-04-06T17:02:41;8.50;1.00
6270;DHT22;3168;51.684;6.954;2023-04-06T17:05:07;8.30;1.00
6270;DHT22;3168;51.684;6.954;2023-04-06T17:07:34;8.30;1.00
6270;DHT22;3168;51.684;6.954;2023-04-06T17:10:00;8.30;1.00
6270;DHT22;3168;51.684;6.954;2023-04-06T17:12:25;8.30;1.00
6270;DHT22;3168;51.684;6.954;2023-04-06T17:14:51;8.20;1.00
6270;DHT22;3168;51.684;6.954;2023-04-06T17:17:17;8.10;1.00
6270;DHT22;3168;51.684;6.954;2023-04-06T17:19:43;8.10;1.00
6270;DHT22;3168;51.684;6.954;2023-04-06T17:22:09;8.10;1.00
6270;DHT22;3168;51.684;6.954;2023-04-06T17:24:35;8.10;1.00
6270;DHT22;3168;51.684;6.954;2023-04-06T17:27:00;8.10;1.00
6270;DHT22;3168;51.684;6.954;2023-04-06T17:29:27;8.00;1.00
6270;DHT22;3168;51.684;6.954;2023-04-06T17:31:53;8.00;1.00
6270;DHT22;3168;51.684;6.954;2023-04-06T17:34:19;8.00;1.00
6270;DHT22;3168;51.684;6.954;2023-04-06T17:36:44;8.00;1.00
6270;DHT22;3168;51.684;6.954;2023-04-06T17:39:10;7.90;1.00
6270;DHT22;3168;51.684;6.954;2023-04-06T17:41:37;7.90;1.00
6270;DHT22;3168;51.684;6.954;2023-04-06T17:44:02;8.00;1.00
6270;DHT22;3168;51.684;6.954;2023-04-06T17:46:28;8.00;1.00